Time;durP1;ratioP1;P1;durP2;ratioP2;P2;SDS_P1;SDS_P2;PMS_P1;PMS_P2;Temp;Humidity;BMP_temperature;BMP_pressure;BME280_temperature;BME280_humidity;BME280_pressure;Samples;Min_cycle;Max_cycle;Signal;HPM_P1;HPM_P2
2022/02/03 00:02:29;;;;;;;;;;;19.80;40.30;;;;;;5114934;28;19969;-60
2022/02/03 00:05:15;;;;;;;;;;;19.80;40.30;;;;;;5115727;28;19919;-61
2022/02/03 00:07:58;;;;;;;;;;;19.80;40.40;;;;;;5115367;28;20301;-60
2022/02/03 00:10:35;;;;;;;;;;;19.80;40.40;;;;;;5115338;28;19912;-60
2022/02/03 00:22:08;;;;;;;;;;;19.70;40.40;;;;;;5115129;28;19914;-60
2022/02/03 00:25:09;;;;;;;;;;;19.80;40.40;;;;;;5109146;28;19958;-60
2022/02/03 00:30:18;;;;;;;;;;;19.80;40.40;;;;;;5115212;28;19951;-61
2022/02/03 00:33:15;;;;;;;;;;;19.80;40.40;;;;;;5114806;28;20290;-61
2022/02/03 00:48:19;;;;;;;;;;;19.80;40.40;;;;;;5114655;28;19918;-60
2022/02/03 00:49:15;;;;;;;;;;;19.70;40.50;;;;;;5114929;28;20442;-60
2022/02/03 00:51:45;;;;;;;;;;;19.70;40.50;;;;;;5114396;28;19907;-60
2022/02/03 00:54:11;;;;;;;;;;;19.70;40.50;;;;;;5114440;28;19919;-61
2022/02/03 00:56:38;;;;;;;;;;;19.70;40.50;;;;;;5114398;28;19942;-60
2022/02/03 00:59:07;;;;;;;;;;;19.70;40.60;;;;;;5114359;28;19908;-60
2022/02/03 01:01:34;;;;;;;;;;;19.70;40.60;;;;;;5114185;28;19953;-61
2022/02/03 01:04:07;;;;;;;;;;;19.70;40.50;;;;;;5114272;28;19915;-60
2022/02/03 01:06:34;;;;;;;;;;;19.70;40.60;;;;;;5114546;28;20326;-60
2022/02/03 01:09:01;;;;;;;;;;;19.70;40.60;;;;;;5114443;28;19908;-60
2022/02/03 01:11:31;;;;;;;;;;;19.70;40.60;;;;;;5114362;28;19908;-60
2022/02/03 01:14:06;;;;;;;;;;;19.70;40.50;;;;;;5114197;28;20004;-60
2022/02/03 01:43:59;;;;;;;;;;;19.70;40.70;;;;;;5113751;28;19968;-61
2022/02/03 01:46:46;;;;;;;;;;;19.70;40.70;;;;;;5113910;28;19918;-60
2022/02/03 01:49:15;;;;;;;;;;;19.70;40.70;;;;;;5113739;28;19915;-60
2022/02/03 01:51:55;;;;;;;;;;;19.70;40.70;;;;;;5113674;28;19915;-60
2022/02/03 01:54:30;;;;;;;;;;;19.60;40.70;;;;;;5113933;28;20034;-61
2022/02/03 01:57:04;;;;;;;;;;;19.70;40.70;;;;;;5113694;28;19911;-61
2022/02/03 01:59:31;;;;;;;;;;;19.70;40.80;;;;;;5113510;28;20016;-60
2022/02/03 02:02:00;;;;;;;;;;;19.60;40.80;;;;;;5113650;28;19912;-60
2022/02/03 02:04:44;;;;;;;;;;;19.60;40.80;;;;;;5095282;28;20375;-60
2022/02/03 02:07:25;;;;;;;;;;;19.70;40.70;;;;;;5095227;28;19908;-60
2022/02/03 02:10:39;;;;;;;;;;;19.70;40.80;;;;;;5113678;28;19908;-60
2022/02/03 02:13:11;;;;;;;;;;;19.70;40.80;;;;;;5113362;28;20454;-60
2022/02/03 02:18:23;;;;;;;;;;;19.60;40.80;;;;;;5113576;28;19915;-60
2022/02/03 02:36:56;;;;;;;;;;;19.70;40.80;;;;;;5113616;28;20061;-60
2022/02/03 02:37:56;;;;;;;;;;;19.60;40.80;;;;;;5117281;28;19914;-60
2022/02/03 02:43:16;;;;;;;;;;;19.60;40.90;;;;;;5117227;28;19908;-60
2022/02/03 02:45:53;;;;;;;;;;;19.60;40.90;;;;;;5116965;28;20279;-61
2022/02/03 02:48:41;;;;;;;;;;;19.60;40.90;;;;;;5117183;28;20194;-61
2022/02/03 02:51:11;;;;;;;;;;;19.60;40.90;;;;;;5117004;28;19912;-61
2022/02/03 02:56:48;;;;;;;;;;;19.60;40.90;;;;;;5116808;28;19908;-60
2022/02/03 02:59:38;;;;;;;;;;;19.60;40.90;;;;;;5116765;28;20382;-61
2022/02/03 03:30:03;;;;;;;;;;;19.60;41.10;;;;;;5116488;28;19952;-60
2022/02/03 03:32:53;;;;;;;;;;;19.60;41.10;;;;;;5116166;28;19955;-60
2022/02/03 03:35:40;;;;;;;;;;;19.60;41.10;;;;;;5116062;28;19914;-60
2022/02/03 03:38:07;;;;;;;;;;;19.50;41.10;;;;;;5114765;28;20260;-60
2022/02/03 03:40:34;;;;;;;;;;;19.60;41.10;;;;;;5115931;28;20010;-61
2022/02/03 03:43:02;;;;;;;;;;;19.50;41.10;;;;;;5115844;28;19962;-60
2022/02/03 03:45:30;;;;;;;;;;;19.50;41.10;;;;;;5116013;28;19908;-61
2022/02/03 03:47:59;;;;;;;;;;;19.50;41.10;;;;;;5116092;28;19907;-60
2022/02/03 03:50:25;;;;;;;;;;;19.50;41.10;;;;;;5115721;28;19908;-61
2022/02/03 03:52:56;;;;;;;;;;;19.50;41.20;;;;;;5115591;28;19923;-60
2022/02/03 03:55:36;;;;;;;;;;;19.50;41.10;;;;;;5115846;28;19961;-60
2022/02/03 04:29:08;;;;;;;;;;;19.50;41.20;;;;;;5115468;28;20374;-60
2022/02/03 04:29:40;;;;;;;;;;;19.50;41.30;;;;;;5115024;28;19953;-60
2022/02/03 04:35:31;;;;;;;;;;;19.50;41.30;;;;;;5114838;28;19963;-60
2022/02/03 04:50:57;;;;;;;;;;;19.50;41.30;;;;;;5114911;28;19923;-60
2022/02/03 05:01:17;;;;;;;;;;;19.50;41.30;;;;;;5114190;28;19923;-60
2022/02/03 05:06:30;;;;;;;;;;;19.50;41.40;;;;;;5114197;28;19954;-60
2022/02/03 05:09:29;;;;;;;;;;;19.50;41.40;;;;;;5096014;28;19916;-60
2022/02/03 05:17:53;;;;;;;;;;;19.50;41.30;;;;;;5114193;28;19915;-60
2022/02/03 05:26:01;;;;;;;;;;;19.60;41.30;;;;;;5114281;28;19914;-60
2022/02/03 05:35:12;;;;;;;;;;;19.70;41.30;;;;;;5114185;28;19912;-61
2022/02/03 06:05:03;;;;;;;;;;;19.80;41.20;;;;;;5117794;28;19915;-60
2022/02/03 06:07:52;;;;;;;;;;;19.80;41.20;;;;;;5117703;28;20331;-60
2022/02/03 06:13:01;;;;;;;;;;;19.80;41.20;;;;;;5117606;28;19915;-61
2022/02/03 06:24:47;;;;;;;;;;;19.80;41.20;;;;;;5117785;28;19915;-60
2022/02/03 06:29:17;;;;;;;;;;;19.90;41.20;;;;;;5117638;28;19967;-60
2022/02/03 06:31:43;;;;;;;;;;;19.80;41.20;;;;;;5117093;28;19908;-61
2022/02/03 06:34:09;;;;;;;;;;;19.90;41.20;;;;;;5117071;28;19912;-61
2022/02/03 06:36:36;;;;;;;;;;;19.90;41.20;;;;;;5117264;28;19911;-60
2022/02/03 06:39:02;;;;;;;;;;;19.90;41.20;;;;;;5117365;28;20008;-61
2022/02/03 06:41:28;;;;;;;;;;;19.90;41.20;;;;;;5117121;28;20359;-61
2022/02/03 06:43:53;;;;;;;;;;;19.90;41.20;;;;;;5116953;28;20010;-61
2022/02/03 06:46:19;;;;;;;;;;;19.90;41.20;;;;;;5098677;28;19962;-61
2022/02/03 06:48:53;;;;;;;;;;;19.90;41.30;;;;;;5117165;28;19911;-61
2022/02/03 06:51:29;;;;;;;;;;;19.90;41.20;;;;;;5116996;28;20323;-61
2022/02/03 06:54:01;;;;;;;;;;;19.90;41.20;;;;;;5116819;28;19938;-61
2022/02/03 06:59:00;;;;;;;;;;;19.90;41.30;;;;;;5117067;28;19939;-61
2022/02/03 07:01:32;;;;;;;;;;;19.90;41.30;;;;;;5116523;28;20324;-61
2022/02/03 07:04:01;;;;;;;;;;;20.00;41.30;;;;;;5116697;28;20339;-61
2022/02/03 07:06:29;;;;;;;;;;;19.90;41.20;;;;;;5116825;28;19953;-61
2022/02/03 07:08:55;;;;;;;;;;;20.00;41.20;;;;;;5116536;28;20325;-61
2022/02/03 07:11:22;;;;;;;;;;;19.90;41.30;;;;;;5116272;28;19908;-61
2022/02/03 07:13:48;;;;;;;;;;;19.90;41.30;;;;;;5116429;28;19962;-60
2022/02/03 07:16:13;;;;;;;;;;;19.90;41.30;;;;;;5116401;28;19973;-61
2022/02/03 07:18:39;;;;;;;;;;;19.90;41.30;;;;;;5116369;28;19908;-61
2022/02/03 07:21:05;;;;;;;;;;;20.00;41.20;;;;;;5116231;28;19911;-61
2022/02/03 07:23:30;;;;;;;;;;;20.00;41.20;;;;;;5116391;28;19912;-61
2022/02/03 07:25:56;;;;;;;;;;;20.00;41.30;;;;;;5116386;28;19908;-61
2022/02/03 07:28:21;;;;;;;;;;;20.00;41.20;;;;;;5116173;28;19908;-61
2022/02/03 07:30:47;;;;;;;;;;;20.00;41.20;;;;;;5116173;28;19973;-61
2022/02/03 07:33:13;;;;;;;;;;;20.00;41.20;;;;;;5115836;28;19923;-61
2022/02/03 07:35:39;;;;;;;;;;;20.00;41.20;;;;;;5116025;28;19908;-61
2022/02/03 07:38:07;;;;;;;;;;;20.00;41.20;;;;;;5115895;28;20420;-61
2022/02/03 07:40:32;;;;;;;;;;;20.00;41.30;;;;;;5115969;28;19915;-61
2022/02/03 07:42:59;;;;;;;;;;;20.00;41.20;;;;;;5115903;28;19908;-61
2022/02/03 07:45:25;;;;;;;;;;;20.00;41.20;;;;;;5115807;28;20375;-61
2022/02/03 07:47:51;;;;;;;;;;;20.00;41.30;;;;;;5115761;28;19908;-61
2022/02/03 07:50:17;;;;;;;;;;;20.00;41.20;;;;;;5097441;28;19911;-61
2022/02/03 07:52:43;;;;;;;;;;;20.00;41.20;;;;;;5115511;28;20325;-61
2022/02/03 07:55:09;;;;;;;;;;;20.00;41.20;;;;;;5115852;28;19908;-61
2022/02/03 07:57:35;;;;;;;;;;;20.00;41.20;;;;;;5115650;28;19912;-61
2022/02/03 08:00:01;;;;;;;;;;;20.00;41.20;;;;;;5115364;28;19964;-61
2022/02/03 08:02:26;;;;;;;;;;;20.10;41.20;;;;;;5115713;28;19912;-61
2022/02/03 08:04:53;;;;;;;;;;;20.00;41.20;;;;;;5115554;28;19908;-61
2022/02/03 08:07:21;;;;;;;;;;;20.10;41.20;;;;;;5115659;28;20024;-61
2022/02/03 08:12:17;;;;;;;;;;;20.00;41.20;;;;;;5092373;28;19916;-62
2022/02/03 08:14:47;;;;;;;;;;;20.00;41.20;;;;;;5091990;28;20056;-60
2022/02/03 08:17:19;;;;;;;;;;;20.10;41.20;;;;;;5093751;28;19916;-61
2022/02/03 08:20:01;;;;;;;;;;;20.10;41.20;;;;;;5093874;28;19920;-61
2022/02/03 08:22:41;;;;;;;;;;;20.00;41.20;;;;;;5093679;28;19908;-62
2022/02/03 08:25:15;;;;;;;;;;;20.10;41.20;;;;;;5093461;28;19969;-61
2022/02/03 08:33:01;;;;;;;;;;;20.10;41.20;;;;;;5093329;28;19916;-61
2022/02/03 08:35:48;;;;;;;;;;;20.10;41.20;;;;;;5093182;28;19971;-61
2022/02/03 08:38:32;;;;;;;;;;;20.10;41.20;;;;;;5093755;28;19908;-61
2022/02/03 08:41:01;;;;;;;;;;;20.10;41.20;;;;;;5093962;28;19908;-62
2022/02/03 08:43:30;;;;;;;;;;;20.10;41.40;;;;;;5093221;28;19908;-62
2022/02/03 08:45:56;;;;;;;;;;;20.10;41.40;;;;;;5093178;28;20005;-62
2022/02/03 08:48:21;;;;;;;;;;;20.10;41.50;;;;;;5093164;28;20366;-61
2022/02/03 08:50:47;;;;;;;;;;;20.20;41.40;;;;;;5093168;28;19916;-62
2022/02/03 08:53:30;;;;;;;;;;;20.20;41.50;;;;;;5074751;28;19927;-63
2022/02/03 08:58:56;;;;;;;;;;;20.20;41.50;;;;;;5093404;28;19958;-60
2022/02/03 09:52:49;;;;;;;;;;;20.30;41.70;;;;;;5092002;28;19927;-62
2022/02/03 09:55:39;;;;;;;;;;;20.20;41.70;;;;;;5092548;28;19949;-61
2022/02/03 09:58:20;;;;;;;;;;;20.30;41.60;;;;;;5092714;28;19908;-61
2022/02/03 10:01:14;;;;;;;;;;;20.30;41.70;;;;;;5091616;28;19961;-61
2022/02/03 10:08:30;;;;;;;;;;;20.30;41.70;;;;;;5092650;28;20438;-62
2022/02/03 10:11:14;;;;;;;;;;;20.30;41.70;;;;;;5091777;28;20071;-61
2022/02/03 10:13:41;;;;;;;;;;;20.20;41.70;;;;;;5091696;28;20008;-61
2022/02/03 10:16:06;;;;;;;;;;;20.20;41.80;;;;;;5092472;28;19908;-61
2022/02/03 10:18:32;;;;;;;;;;;20.30;41.70;;;;;;5092224;28;19916;-60
2022/02/03 10:20:59;;;;;;;;;;;20.40;41.60;;;;;;5092076;28;19909;-60
2022/02/03 10:23:27;;;;;;;;;;;20.40;41.40;;;;;;5091942;28;19943;-60
2022/02/03 10:25:57;;;;;;;;;;;20.40;41.40;;;;;;5092387;28;19908;-60
2022/02/03 10:28:26;;;;;;;;;;;20.30;41.70;;;;;;5092851;28;19908;-61
2022/02/03 10:30:59;;;;;;;;;;;20.30;41.70;;;;;;5092723;28;19943;-60
2022/02/03 10:33:33;;;;;;;;;;;20.30;41.70;;;;;;5091500;28;20145;-61
2022/02/03 10:36:05;;;;;;;;;;;20.30;41.70;;;;;;5090653;28;20294;-61
2022/02/03 10:38:56;;;;;;;;;;;20.30;41.70;;;;;;5090899;28;20006;-61
2022/02/03 10:52:01;;;;;;;;;;;20.30;41.70;;;;;;5096304;28;19908;-61
2022/02/03 10:54:45;;;;;;;;;;;20.30;41.70;;;;;;5095990;28;19923;-61
2022/02/03 11:02:46;;;;;;;;;;;20.30;41.70;;;;;;5096197;28;19923;-61
2022/02/03 11:12:52;;;;;;;;;;;20.30;41.60;;;;;;5095708;28;19977;-61
2022/02/03 11:15:18;;;;;;;;;;;20.30;41.70;;;;;;5095717;28;19908;-60
2022/02/03 11:17:44;;;;;;;;;;;20.30;41.60;;;;;;5095589;28;19914;-60
2022/02/03 11:20:11;;;;;;;;;;;20.30;41.70;;;;;;5095757;28;20364;-60
2022/02/03 11:48:12;;;;;;;;;;;20.30;41.60;;;;;;5051543;28;19913;-61
2022/02/03 11:50:14;;;;;;;;;;;20.30;41.60;;;;;;5043607;28;19909;-61
2022/02/03 11:58:16;;;;;;;;;;;20.20;41.70;;;;;;5093467;28;19998;-61
2022/02/03 12:03:47;;;;;;;;;;;20.20;41.70;;;;;;5094028;28;19912;-61
2022/02/03 12:15:29;;;;;;;;;;;20.20;41.70;;;;;;5093007;28;20378;-61
2022/02/03 12:18:15;;;;;;;;;;;20.30;41.70;;;;;;5094233;28;19912;-61
2022/02/03 12:20:57;;;;;;;;;;;20.20;41.60;;;;;;5093458;28;20536;-61
2022/02/03 12:23:35;;;;;;;;;;;20.20;41.60;;;;;;5092679;28;19930;-61
2022/02/03 12:26:07;;;;;;;;;;;20.20;41.60;;;;;;5094033;28;19915;-61
2022/02/03 12:28:48;;;;;;;;;;;20.20;41.60;;;;;;5092805;28;19908;-61
2022/02/03 12:37:00;;;;;;;;;;;20.30;41.50;;;;;;5093868;28;19991;-61
2022/02/03 12:39:21;;;;;;;;;;;20.30;41.50;;;;;;5093522;28;20297;-61
2022/02/03 12:42:04;;;;;;;;;;;20.30;41.50;;;;;;5091409;28;19908;-60
2022/02/03 12:44:30;;;;;;;;;;;20.30;41.50;;;;;;5093487;28;19908;-61
2022/02/03 12:47:02;;;;;;;;;;;20.30;41.50;;;;;;5093413;28;20349;-61
2022/02/03 12:49:30;;;;;;;;;;;20.30;41.60;;;;;;5093653;28;19974;-61
2022/02/03 12:51:56;;;;;;;;;;;20.30;41.60;;;;;;5092397;28;19961;-62
2022/02/03 12:54:21;;;;;;;;;;;20.30;41.50;;;;;;5092988;28;19912;-62
2022/02/03 12:56:46;;;;;;;;;;;20.40;41.50;;;;;;5093190;28;19950;-62
2022/02/03 12:59:15;;;;;;;;;;;20.30;41.50;;;;;;5093147;28;19916;-61
2022/02/03 13:01:42;;;;;;;;;;;20.30;41.50;;;;;;5092447;28;20380;-61
2022/02/03 13:04:19;;;;;;;;;;;20.30;41.50;;;;;;5093064;28;20347;-61
2022/02/03 13:06:58;;;;;;;;;;;20.30;41.50;;;;;;5093647;28;19908;-62
2022/02/03 13:09:27;;;;;;;;;;;20.30;41.50;;;;;;5092419;28;19995;-61
2022/02/03 13:11:56;;;;;;;;;;;20.30;41.50;;;;;;5092534;28;19915;-62
2022/02/03 13:14:43;;;;;;;;;;;20.30;41.50;;;;;;5092547;28;20023;-62
2022/02/03 13:17:14;;;;;;;;;;;20.40;41.50;;;;;;5093061;28;20098;-62
2022/02/03 13:22:28;;;;;;;;;;;20.30;41.50;;;;;;5092607;28;19908;-62
2022/02/03 13:30:16;;;;;;;;;;;20.40;41.50;;;;;;5092976;28;19912;-62
2022/02/03 13:32:48;;;;;;;;;;;20.30;41.40;;;;;;5092534;28;20264;-62
2022/02/03 13:35:32;;;;;;;;;;;20.40;41.50;;;;;;5092405;28;19916;-61
2022/02/03 13:38:06;;;;;;;;;;;20.40;41.50;;;;;;5093129;28;19915;-61
2022/02/03 13:40:31;;;;;;;;;;;20.40;41.50;;;;;;5092473;28;19908;-61
2022/02/03 13:43:13;;;;;;;;;;;20.40;41.50;;;;;;5092260;28;20019;-62
2022/02/03 13:45:39;;;;;;;;;;;20.40;41.40;;;;;;5092497;28;19908;-61
2022/02/03 13:48:18;;;;;;;;;;;20.40;41.40;;;;;;5092871;28;19912;-62
2022/02/03 13:50:55;;;;;;;;;;;20.40;41.50;;;;;;5092320;28;19969;-61
2022/02/03 13:53:27;;;;;;;;;;;20.40;41.40;;;;;;5092563;28;19917;-61
2022/02/03 14:18:35;;;;;;;;;;;20.40;41.40;;;;;;5092287;28;19912;-62
2022/02/03 14:21:06;;;;;;;;;;;20.40;41.40;;;;;;5091890;28;19915;-61
2022/02/03 14:29:01;;;;;;;;;;;20.40;41.40;;;;;;5096362;28;19969;-61
2022/02/03 14:31:27;;;;;;;;;;;20.40;41.50;;;;;;5095535;28;19912;-62
2022/02/03 14:33:54;;;;;;;;;;;20.40;41.40;;;;;;5095416;28;20624;-61
2022/02/03 14:36:23;;;;;;;;;;;20.40;41.40;;;;;;5095948;28;20449;-61
2022/02/03 14:39:06;;;;;;;;;;;20.40;41.50;;;;;;5095647;28;20263;-61
2022/02/03 14:41:44;;;;;;;;;;;20.40;41.40;;;;;;5095621;28;19908;-61
2022/02/03 14:44:09;;;;;;;;;;;20.40;41.40;;;;;;5096236;28;19912;-62
2022/02/03 14:46:35;;;;;;;;;;;20.40;41.40;;;;;;5094772;28;19916;-61
2022/02/03 14:49:00;;;;;;;;;;;20.40;41.50;;;;;;5094037;28;19999;-63
2022/02/03 14:51:34;;;;;;;;;;;20.40;41.50;;;;;;5095279;28;20363;-63
2022/02/03 14:59:15;;;;;;;;;;;20.40;41.50;;;;;;5096401;28;19914;-62
2022/02/03 15:01:41;;;;;;;;;;;20.40;41.50;;;;;;5093925;28;20003;-62
2022/02/03 15:04:11;;;;;;;;;;;20.40;41.40;;;;;;5093992;28;20006;-62
2022/02/03 15:06:44;;;;;;;;;;;20.30;41.40;;;;;;5094154;28;19908;-64
2022/02/03 15:09:18;;;;;;;;;;;20.40;41.40;;;;;;5093910;28;19908;-63
2022/02/03 15:14:12;;;;;;;;;;;20.40;41.40;;;;;;5094081;28;19916;-62
2022/02/03 15:16:37;;;;;;;;;;;20.40;41.40;;;;;;5095798;28;20277;-62
2022/02/03 15:19:03;;;;;;;;;;;20.30;41.40;;;;;;5095677;28;20415;-63
2022/02/03 15:21:29;;;;;;;;;;;20.40;41.30;;;;;;5095811;28;19998;-62
2022/02/03 15:23:54;;;;;;;;;;;20.40;41.30;;;;;;5095765;28;20003;-62
2022/02/03 15:26:21;;;;;;;;;;;20.40;41.40;;;;;;5094567;28;19954;-63
2022/02/03 15:28:47;;;;;;;;;;;20.40;41.30;;;;;;5095713;28;19925;-62
2022/02/03 15:31:13;;;;;;;;;;;20.40;41.30;;;;;;5095572;28;19934;-63
2022/02/03 15:33:38;;;;;;;;;;;20.40;41.30;;;;;;5095222;28;20014;-63
2022/02/03 15:36:09;;;;;;;;;;;20.40;41.30;;;;;;5095307;28;19959;-62
2022/02/03 15:38:37;;;;;;;;;;;20.40;41.30;;;;;;5093518;28;19937;-61
2022/02/03 15:41:06;;;;;;;;;;;20.30;41.30;;;;;;5094584;28;19915;-62
2022/02/03 15:43:39;;;;;;;;;;;20.40;41.30;;;;;;5094987;28;19915;-62
2022/02/03 15:46:05;;;;;;;;;;;20.40;41.30;;;;;;5094712;28;19976;-62
2022/02/03 16:00:24;;;;;;;;;;;20.30;41.30;;;;;;5094422;28;19915;-62
2022/02/03 16:18:17;;;;;;;;;;;20.30;41.30;;;;;;5093766;28;20003;-61
2022/02/03 16:21:13;;;;;;;;;;;20.30;41.30;;;;;;5091918;28;19955;-61
2022/02/03 16:53:14;;;;;;;;;;;20.30;41.20;;;;;;5094126;28;19912;-61
2022/02/03 16:55:42;;;;;;;;;;;20.30;41.20;;;;;;5094256;28;19915;-61
2022/02/03 16:58:09;;;;;;;;;;;20.30;41.20;;;;;;5093948;28;20367;-62
2022/02/03 17:00:35;;;;;;;;;;;20.30;41.20;;;;;;5092566;28;20038;-61
2022/02/03 17:03:01;;;;;;;;;;;20.30;41.10;;;;;;5093882;28;20010;-61
2022/02/03 17:05:27;;;;;;;;;;;20.30;41.20;;;;;;5092536;28;19908;-62
2022/02/03 17:07:53;;;;;;;;;;;20.20;41.10;;;;;;5094252;28;19914;-62
2022/02/03 17:10:18;;;;;;;;;;;20.30;41.20;;;;;;5093964;28;20384;-62
2022/02/03 17:12:44;;;;;;;;;;;20.30;41.10;;;;;;5092370;28;19916;-62
2022/02/03 17:15:09;;;;;;;;;;;20.30;41.10;;;;;;5093804;28;20331;-61
2022/02/03 17:17:35;;;;;;;;;;;20.30;41.10;;;;;;5093712;28;20452;-62
2022/02/03 17:20:01;;;;;;;;;;;20.30;41.10;;;;;;5093812;28;19912;-62
2022/02/03 17:22:31;;;;;;;;;;;20.30;41.10;;;;;;5093749;28;19958;-62
2022/02/03 17:25:09;;;;;;;;;;;20.30;41.10;;;;;;5093763;28;20367;-62
2022/02/03 17:27:44;;;;;;;;;;;20.30;41.10;;;;;;5093726;28;19908;-61
2022/02/03 17:30:22;;;;;;;;;;;20.30;41.10;;;;;;5093696;28;20351;-61
2022/02/03 18:08:33;;;;;;;;;;;20.30;41.00;;;;;;5097852;28;19915;-62
2022/02/03 18:29:58;;;;;;;;;;;20.30;41.00;;;;;;5097288;28;19909;-61
2022/02/03 18:35:17;;;;;;;;;;;20.30;41.00;;;;;;5096996;28;19912;-61
2022/02/03 18:56:14;;;;;;;;;;;20.20;41.00;;;;;;5096671;28;19943;-62
2022/02/03 18:58:47;;;;;;;;;;;20.20;41.00;;;;;;5095331;28;20358;-62
2022/02/03 19:01:31;;;;;;;;;;;20.20;40.90;;;;;;5096282;28;19920;-62
2022/02/03 19:26:00;;;;;;;;;;;20.20;41.00;;;;;;5096033;28;19915;-63
2022/02/03 20:08:42;;;;;;;;;;;20.20;40.90;;;;;;5095411;28;19908;-62
2022/02/03 20:11:09;;;;;;;;;;;20.20;40.90;;;;;;5095083;28;20378;-62
2022/02/03 20:13:34;;;;;;;;;;;20.20;40.90;;;;;;5094978;28;19923;-63
2022/02/03 20:16:00;;;;;;;;;;;20.20;40.90;;;;;;5094986;28;19999;-63
2022/02/03 20:18:25;;;;;;;;;;;20.20;40.90;;;;;;5094668;28;19961;-62
2022/02/03 20:20:51;;;;;;;;;;;20.20;40.90;;;;;;5094114;28;19912;-62
2022/02/03 20:23:19;;;;;;;;;;;20.20;40.90;;;;;;5093545;28;19912;-62
2022/02/03 20:25:57;;;;;;;;;;;20.20;40.90;;;;;;5094808;28;19909;-62
2022/02/03 20:28:26;;;;;;;;;;;20.20;40.90;;;;;;5094813;28;20012;-63
2022/02/03 20:30:52;;;;;;;;;;;20.20;40.90;;;;;;5094718;28;19908;-63
2022/02/03 20:33:17;;;;;;;;;;;20.20;40.90;;;;;;5094812;28;19924;-62
2022/02/03 20:35:43;;;;;;;;;;;20.20;40.90;;;;;;5094932;28;19954;-63
2022/02/03 20:38:09;;;;;;;;;;;20.20;40.90;;;;;;5094552;28;19931;-62
2022/02/03 20:40:34;;;;;;;;;;;20.20;40.90;;;;;;5094795;28;19908;-62
2022/02/03 20:43:00;;;;;;;;;;;20.20;40.90;;;;;;5094744;28;20002;-62
2022/02/03 20:45:26;;;;;;;;;;;20.20;40.90;;;;;;5094436;28;19908;-61
2022/02/03 20:47:51;;;;;;;;;;;20.20;40.90;;;;;;5093092;28;19950;-61
2022/02/03 20:50:20;;;;;;;;;;;20.20;40.90;;;;;;5093083;28;19917;-61
2022/02/03 20:52:46;;;;;;;;;;;20.20;40.90;;;;;;5094279;28;19919;-61
2022/02/03 20:55:11;;;;;;;;;;;20.20;40.90;;;;;;5094286;28;19912;-62
2022/02/03 20:57:37;;;;;;;;;;;20.30;40.90;;;;;;5094289;28;20378;-62
2022/02/03 21:05:28;;;;;;;;;;;20.20;40.90;;;;;;5094484;28;20287;-62
2022/02/03 21:07:53;;;;;;;;;;;20.20;40.90;;;;;;5094114;28;19908;-62
2022/02/03 21:10:22;;;;;;;;;;;20.20;40.90;;;;;;5094029;28;19915;-62
2022/02/03 21:12:48;;;;;;;;;;;20.20;40.90;;;;;;5093895;28;20486;-62
2022/02/03 21:15:20;;;;;;;;;;;20.20;40.90;;;;;;5094221;28;20066;-62
2022/02/03 21:17:46;;;;;;;;;;;20.20;41.00;;;;;;5092635;28;20105;-61
2022/02/03 21:20:15;;;;;;;;;;;20.10;40.90;;;;;;5093896;28;19908;-61
2022/02/03 21:22:40;;;;;;;;;;;20.20;41.00;;;;;;5094063;28;19908;-61
2022/02/03 21:25:14;;;;;;;;;;;20.20;41.00;;;;;;5093752;28;20253;-61
2022/02/03 21:27:39;;;;;;;;;;;20.10;41.00;;;;;;5093743;28;20272;-61
2022/02/03 21:30:07;;;;;;;;;;;20.10;41.00;;;;;;5093576;28;19950;-61
2022/02/03 21:32:32;;;;;;;;;;;20.10;41.00;;;;;;5093635;28;19915;-62
2022/02/03 21:34:58;;;;;;;;;;;20.10;41.00;;;;;;5093685;28;20305;-61
2022/02/03 21:37:23;;;;;;;;;;;20.10;41.00;;;;;;5093387;28;20398;-61
2022/02/03 21:39:54;;;;;;;;;;;20.00;41.10;;;;;;5093637;28;20034;-61
2022/02/03 21:42:20;;;;;;;;;;;20.10;41.10;;;;;;5093820;28;19908;-62
2022/02/03 21:44:45;;;;;;;;;;;20.10;41.10;;;;;;5093562;28;20314;-62
2022/02/03 21:47:10;;;;;;;;;;;20.00;41.10;;;;;;5093626;28;20379;-62
2022/02/03 21:49:36;;;;;;;;;;;20.00;41.10;;;;;;5092221;28;19918;-62
2022/02/03 21:52:01;;;;;;;;;;;20.00;41.10;;;;;;5093414;28;19961;-62
2022/02/03 21:54:27;;;;;;;;;;;20.00;41.10;;;;;;5093337;28;19969;-63
2022/02/03 21:56:52;;;;;;;;;;;20.00;41.20;;;;;;5092133;28;19915;-62
2022/02/03 21:59:18;;;;;;;;;;;20.00;41.10;;;;;;5093428;28;19909;-62
2022/02/03 22:01:43;;;;;;;;;;;20.00;41.10;;;;;;5093264;28;19927;-62
2022/02/03 22:04:09;;;;;;;;;;;20.00;41.10;;;;;;5092027;28;20279;-62
2022/02/03 22:06:35;;;;;;;;;;;20.00;41.20;;;;;;5093314;28;19912;-61
2022/02/03 22:09:00;;;;;;;;;;;20.00;41.20;;;;;;5093335;28;19908;-62
2022/02/03 22:11:26;;;;;;;;;;;20.00;41.10;;;;;;5093485;28;19958;-63
2022/02/03 22:13:51;;;;;;;;;;;20.00;41.20;;;;;;5093223;28;19924;-63
2022/02/03 22:16:24;;;;;;;;;;;20.00;41.20;;;;;;5093228;28;20260;-62
2022/02/03 22:18:49;;;;;;;;;;;20.00;41.10;;;;;;5093535;28;19908;-62
2022/02/03 22:21:28;;;;;;;;;;;20.00;41.10;;;;;;5091954;28;20379;-62
2022/02/03 22:24:06;;;;;;;;;;;20.00;41.20;;;;;;5093237;28;19908;-62
2022/02/03 22:42:48;;;;;;;;;;;19.90;41.20;;;;;;5093857;28;19915;-62
2022/02/03 22:45:21;;;;;;;;;;;19.90;41.20;;;;;;5096910;28;19908;-62
2022/02/03 22:50:15;;;;;;;;;;;19.90;41.20;;;;;;5096813;28;20383;-61
2022/02/03 22:52:42;;;;;;;;;;;19.90;41.20;;;;;;5096617;28;20046;-61
2022/02/03 22:55:08;;;;;;;;;;;19.90;41.20;;;;;;5096675;28;19916;-62
2022/02/03 22:57:33;;;;;;;;;;;19.90;41.20;;;;;;5096594;28;20452;-61
2022/02/03 23:00:11;;;;;;;;;;;19.90;41.20;;;;;;5096419;28;19949;-62
2022/02/03 23:02:37;;;;;;;;;;;19.90;41.20;;;;;;5096539;28;19912;-62
2022/02/03 23:05:03;;;;;;;;;;;19.90;41.20;;;;;;5096314;28;19931;-62
2022/02/03 23:08:16;;;;;;;;;;;19.80;41.20;;;;;;5096298;28;19908;-62
2022/02/03 23:10:40;;;;;;;;;;;19.80;41.20;;;;;;5092218;28;19908;-62
2022/02/03 23:13:23;;;;;;;;;;;19.80;41.20;;;;;;5096533;28;20019;-62
2022/02/03 23:16:03;;;;;;;;;;;19.80;41.20;;;;;;5096311;28;19916;-61
2022/02/03 23:18:52;;;;;;;;;;;19.80;41.20;;;;;;5096200;28;19908;-61
2022/02/03 23:23:40;;;;;;;;;;;19.80;41.20;;;;;;5096098;28;19912;-62
2022/02/03 23:26:07;;;;;;;;;;;19.80;41.20;;;;;;5096048;28;20336;-61
2022/02/03 23:28:34;;;;;;;;;;;19.80;41.20;;;;;;5094758;28;19998;-61
2022/02/03 23:31:00;;;;;;;;;;;19.80;41.20;;;;;;5095970;28;19966;-62
2022/02/03 23:33:28;;;;;;;;;;;19.70;41.20;;;;;;5095975;28;20376;-62
2022/02/03 23:35:54;;;;;;;;;;;19.70;41.20;;;;;;5095928;28;19915;-62
2022/02/03 23:38:43;;;;;;;;;;;19.80;41.20;;;;;;5095833;28;19908;-62
2022/02/03 23:42:03;;;;;;;;;;;19.80;41.20;;;;;;5095977;28;19955;-62
2022/02/03 23:44:14;;;;;;;;;;;19.80;41.20;;;;;;5095527;28;20010;-62
